sensor_id;sensor_type;location;lat;lon;timestamp;P1;durP1;ratioP1;P2;durP2;ratioP2
1721;SDS011;858;53.190;8.596;2022-08-04T00:00:25;32.55;;;19.00;;
1721;SDS011;858;53.190;8.596;2022-08-04T00:02:58;29.55;;;19.73;;
1721;SDS011;858;53.190;8.596;2022-08-04T00:05:33;25.52;;;18.30;;
1721;SDS011;858;53.190;8.596;2022-08-04T00:08:04;28.75;;;18.13;;
1721;SDS011;858;53.190;8.596;2022-08-04T00:10:31;32.57;;;19.43;;
1721;SDS011;858;53.190;8.596;2022-08-04T00:13:01;35.22;;;20.02;;
1721;SDS011;858;53.190;8.596;2022-08-04T00:15:28;30.13;;;20.65;;
1721;SDS011;858;53.190;8.596;2022-08-04T00:17:56;29.15;;;20.17;;
1721;SDS011;858;53.190;8.596;2022-08-04T00:20:28;33.53;;;19.83;;
1721;SDS011;858;53.190;8.596;2022-08-04T00:22:55;33.15;;;20.48;;
1721;SDS011;858;53.190;8.596;2022-08-04T00:25:22;30.58;;;20.88;;
1721;SDS011;858;53.190;8.596;2022-08-04T00:27:50;30.67;;;20.00;;
1721;SDS011;858;53.190;8.596;2022-08-04T00:30:17;29.00;;;19.67;;
1721;SDS011;858;53.190;8.596;2022-08-04T00:32:43;27.85;;;19.20;;
1721;SDS011;858;53.190;8.596;2022-08-04T00:35:12;28.52;;;19.85;;
1721;SDS011;858;53.190;8.596;2022-08-04T00:37:40;29.35;;;19.15;;
1721;SDS011;858;53.190;8.596;2022-08-04T00:40:18;30.33;;;19.98;;
1721;SDS011;858;53.190;8.596;2022-08-04T00:42:48;30.80;;;20.00;;
1721;SDS011;858;53.190;8.596;2022-08-04T00:48:01;32.67;;;20.00;;
1721;SDS011;858;53.190;8.596;2022-08-04T00:50:31;32.97;;;19.00;;
1721;SDS011;858;53.190;8.596;2022-08-04T00:53:03;31.02;;;21.58;;
1721;SDS011;858;53.190;8.596;2022-08-04T00:58:22;27.85;;;18.30;;
1721;SDS011;858;53.190;8.596;2022-08-04T01:00:53;31.77;;;20.55;;
1721;SDS011;858;53.190;8.596;2022-08-04T01:03:23;30.15;;;21.20;;
1721;SDS011;858;53.190;8.596;2022-08-04T01:05:51;30.50;;;20.38;;
1721;SDS011;858;53.190;8.596;2022-08-04T01:08:33;32.13;;;20.55;;
1721;SDS011;858;53.190;8.596;2022-08-04T01:11:06;34.78;;;21.55;;
1721;SDS011;858;53.190;8.596;2022-08-04T01:13:41;29.30;;;19.88;;
1721;SDS011;858;53.190;8.596;2022-08-04T01:16:10;32.13;;;22.60;;
1721;SDS011;858;53.190;8.596;2022-08-04T01:18:44;34.53;;;21.38;;
1721;SDS011;858;53.190;8.596;2022-08-04T01:23:58;33.40;;;21.67;;
1721;SDS011;858;53.190;8.596;2022-08-04T01:29:21;30.43;;;21.20;;
1721;SDS011;858;53.190;8.596;2022-08-04T01:32:01;30.90;;;22.45;;
1721;SDS011;858;53.190;8.596;2022-08-04T01:34:28;28.83;;;21.38;;
1721;SDS011;858;53.190;8.596;2022-08-04T01:36:57;32.65;;;21.90;;
1721;SDS011;858;53.190;8.596;2022-08-04T01:39:24;33.38;;;22.23;;
1721;SDS011;858;53.190;8.596;2022-08-04T01:42:09;33.38;;;23.90;;
1721;SDS011;858;53.190;8.596;2022-08-04T01:44:38;33.58;;;22.50;;
1721;SDS011;858;53.190;8.596;2022-08-04T01:47:05;35.50;;;23.38;;
1721;SDS011;858;53.190;8.596;2022-08-04T01:49:32;29.95;;;22.10;;
1721;SDS011;858;53.190;8.596;2022-08-04T01:51:58;35.58;;;23.73;;
1721;SDS011;858;53.190;8.596;2022-08-04T01:54:25;33.38;;;22.05;;
1721;SDS011;858;53.190;8.596;2022-08-04T01:56:52;35.30;;;22.52;;
1721;SDS011;858;53.190;8.596;2022-08-04T01:59:19;31.10;;;21.92;;
1721;SDS011;858;53.190;8.596;2022-08-04T02:01:47;30.63;;;23.20;;
1721;SDS011;858;53.190;8.596;2022-08-04T02:04:14;32.15;;;23.20;;
1721;SDS011;858;53.190;8.596;2022-08-04T02:06:44;32.13;;;22.77;;
1721;SDS011;858;53.190;8.596;2022-08-04T02:09:15;29.83;;;22.55;;
1721;SDS011;858;53.190;8.596;2022-08-04T02:11:43;33.20;;;23.13;;
1721;SDS011;858;53.190;8.596;2022-08-04T02:14:13;33.80;;;23.77;;
1721;SDS011;858;53.190;8.596;2022-08-04T02:17:08;34.90;;;23.70;;
1721;SDS011;858;53.190;8.596;2022-08-04T02:19:39;38.17;;;22.95;;
1721;SDS011;858;53.190;8.596;2022-08-04T02:22:09;33.10;;;22.83;;
1721;SDS011;858;53.190;8.596;2022-08-04T02:24:42;31.45;;;21.80;;
1721;SDS011;858;53.190;8.596;2022-08-04T02:27:11;33.60;;;22.47;;
1721;SDS011;858;53.190;8.596;2022-08-04T02:29:39;32.22;;;22.17;;
1721;SDS011;858;53.190;8.596;2022-08-04T02:32:13;33.92;;;22.45;;
1721;SDS011;858;53.190;8.596;2022-08-04T02:34:40;37.15;;;23.15;;
1721;SDS011;858;53.190;8.596;2022-08-04T02:37:08;32.10;;;21.63;;
1721;SDS011;858;53.190;8.596;2022-08-04T02:39:36;33.97;;;21.83;;
1721;SDS011;858;53.190;8.596;2022-08-04T02:42:06;29.57;;;21.40;;
1721;SDS011;858;53.190;8.596;2022-08-04T02:44:34;32.63;;;20.83;;
1721;SDS011;858;53.190;8.596;2022-08-04T02:47:01;35.60;;;20.55;;
1721;SDS011;858;53.190;8.596;2022-08-04T02:49:31;30.73;;;20.85;;
1721;SDS011;858;53.190;8.596;2022-08-04T02:52:00;25.00;;;19.53;;
1721;SDS011;858;53.190;8.596;2022-08-04T02:54:32;28.45;;;20.30;;
1721;SDS011;858;53.190;8.596;2022-08-04T02:56:59;26.42;;;19.27;;
1721;SDS011;858;53.190;8.596;2022-08-04T02:59:26;28.65;;;20.65;;
1721;SDS011;858;53.190;8.596;2022-08-04T03:01:53;26.92;;;19.60;;
1721;SDS011;858;53.190;8.596;2022-08-04T03:04:22;29.05;;;20.45;;
1721;SDS011;858;53.190;8.596;2022-08-04T03:10:00;29.60;;;18.40;;
1721;SDS011;858;53.190;8.596;2022-08-04T03:15:34;24.27;;;18.43;;
1721;SDS011;858;53.190;8.596;2022-08-04T03:18:28;27.10;;;16.92;;
1721;SDS011;858;53.190;8.596;2022-08-04T03:21:04;26.85;;;18.55;;
1721;SDS011;858;53.190;8.596;2022-08-04T03:24:01;28.77;;;18.45;;
1721;SDS011;858;53.190;8.596;2022-08-04T03:40:23;23.40;;;16.30;;
1721;SDS011;858;53.190;8.596;2022-08-04T03:42:59;21.98;;;16.35;;
1721;SDS011;858;53.190;8.596;2022-08-04T03:45:48;21.70;;;15.03;;
1721;SDS011;858;53.190;8.596;2022-08-04T03:51:10;18.63;;;14.52;;
1721;SDS011;858;53.190;8.596;2022-08-04T03:54:04;21.13;;;15.20;;
1721;SDS011;858;53.190;8.596;2022-08-04T03:56:53;20.85;;;14.90;;
1721;SDS011;858;53.190;8.596;2022-08-04T03:59:26;21.13;;;15.23;;
1721;SDS011;858;53.190;8.596;2022-08-04T04:02:08;22.13;;;14.65;;
1721;SDS011;858;53.190;8.596;2022-08-04T04:04:53;20.90;;;13.40;;
1721;SDS011;858;53.190;8.596;2022-08-04T04:07:32;20.05;;;14.10;;
1721;SDS011;858;53.190;8.596;2022-08-04T04:10:07;19.65;;;15.40;;
1721;SDS011;858;53.190;8.596;2022-08-04T04:18:15;18.48;;;13.88;;
1721;SDS011;858;53.190;8.596;2022-08-04T04:20:49;20.75;;;14.25;;
1721;SDS011;858;53.190;8.596;2022-08-04T04:23:25;21.58;;;13.65;;
1721;SDS011;858;53.190;8.596;2022-08-04T04:26:03;21.00;;;14.50;;
1721;SDS011;858;53.190;8.596;2022-08-04T04:28:37;20.67;;;14.40;;
1721;SDS011;858;53.190;8.596;2022-08-04T04:31:12;21.45;;;14.10;;
1721;SDS011;858;53.190;8.596;2022-08-04T04:34:01;18.80;;;13.10;;
1721;SDS011;858;53.190;8.596;2022-08-04T04:36:33;21.95;;;13.80;;
1721;SDS011;858;53.190;8.596;2022-08-04T04:39:02;19.52;;;13.35;;
1721;SDS011;858;53.190;8.596;2022-08-04T04:41:40;20.45;;;13.20;;
1721;SDS011;858;53.190;8.596;2022-08-04T04:44:14;22.58;;;12.95;;
1721;SDS011;858;53.190;8.596;2022-08-04T04:46:45;17.17;;;12.47;;
1721;SDS011;858;53.190;8.596;2022-08-04T04:49:22;16.73;;;12.20;;
1721;SDS011;858;53.190;8.596;2022-08-04T04:51:53;18.65;;;11.57;;
1721;SDS011;858;53.190;8.596;2022-08-04T04:54:25;16.67;;;12.30;;
1721;SDS011;858;53.190;8.596;2022-08-04T04:56:57;20.08;;;12.25;;
1721;SDS011;858;53.190;8.596;2022-08-04T04:59:27;19.45;;;12.40;;
1721;SDS011;858;53.190;8.596;2022-08-04T05:04:46;17.95;;;11.35;;
1721;SDS011;858;53.190;8.596;2022-08-04T05:07:29;19.42;;;10.98;;
1721;SDS011;858;53.190;8.596;2022-08-04T05:10:02;21.05;;;11.00;;
1721;SDS011;858;53.190;8.596;2022-08-04T05:12:41;19.70;;;11.57;;
1721;SDS011;858;53.190;8.596;2022-08-04T05:15:23;16.42;;;10.38;;
1721;SDS011;858;53.190;8.596;2022-08-04T05:17:51;15.38;;;10.50;;
1721;SDS011;858;53.190;8.596;2022-08-04T05:20:21;17.20;;;12.02;;
1721;SDS011;858;53.190;8.596;2022-08-04T05:22:51;17.38;;;11.02;;
1721;SDS011;858;53.190;8.596;2022-08-04T05:25:20;19.02;;;11.35;;
1721;SDS011;858;53.190;8.596;2022-08-04T05:27:49;19.25;;;11.63;;
1721;SDS011;858;53.190;8.596;2022-08-04T05:30:15;18.98;;;11.05;;
1721;SDS011;858;53.190;8.596;2022-08-04T05:32:44;16.58;;;11.10;;
1721;SDS011;858;53.190;8.596;2022-08-04T05:35:13;16.33;;;11.05;;
1721;SDS011;858;53.190;8.596;2022-08-04T05:37:42;17.90;;;11.00;;
1721;SDS011;858;53.190;8.596;2022-08-04T05:40:09;17.90;;;11.15;;
1721;SDS011;858;53.190;8.596;2022-08-04T05:42:37;14.85;;;10.45;;
1721;SDS011;858;53.190;8.596;2022-08-04T05:45:04;16.25;;;11.00;;
1721;SDS011;858;53.190;8.596;2022-08-04T05:47:32;17.95;;;10.45;;
1721;SDS011;858;53.190;8.596;2022-08-04T05:49:59;16.92;;;10.00;;
1721;SDS011;858;53.190;8.596;2022-08-04T05:52:26;17.95;;;10.10;;
1721;SDS011;858;53.190;8.596;2022-08-04T05:54:55;18.77;;;10.15;;
1721;SDS011;858;53.190;8.596;2022-08-04T05:57:23;14.98;;;10.13;;
1721;SDS011;858;53.190;8.596;2022-08-04T05:59:50;16.95;;;9.20;;
1721;SDS011;858;53.190;8.596;2022-08-04T06:02:17;17.45;;;9.63;;
1721;SDS011;858;53.190;8.596;2022-08-04T06:04:45;21.27;;;10.93;;
1721;SDS011;858;53.190;8.596;2022-08-04T06:07:13;16.40;;;9.23;;
1721;SDS011;858;53.190;8.596;2022-08-04T06:09:39;13.65;;;9.05;;
1721;SDS011;858;53.190;8.596;2022-08-04T06:12:10;13.10;;;7.88;;
1721;SDS011;858;53.190;8.596;2022-08-04T06:14:37;15.57;;;8.70;;
1721;SDS011;858;53.190;8.596;2022-08-04T06:17:04;15.20;;;8.57;;
1721;SDS011;858;53.190;8.596;2022-08-04T06:19:32;13.40;;;8.02;;
1721;SDS011;858;53.190;8.596;2022-08-04T06:22:00;16.35;;;8.52;;
1721;SDS011;858;53.190;8.596;2022-08-04T06:24:28;15.10;;;7.80;;
1721;SDS011;858;53.190;8.596;2022-08-04T06:26:55;16.75;;;8.90;;
1721;SDS011;858;53.190;8.596;2022-08-04T06:29:26;16.83;;;7.95;;
1721;SDS011;858;53.190;8.596;2022-08-04T06:31:58;14.00;;;8.70;;
1721;SDS011;858;53.190;8.596;2022-08-04T06:34:28;15.85;;;7.60;;
1721;SDS011;858;53.190;8.596;2022-08-04T06:36:55;12.80;;;7.60;;
1721;SDS011;858;53.190;8.596;2022-08-04T06:39:23;21.33;;;8.20;;
1721;SDS011;858;53.190;8.596;2022-08-04T06:41:51;12.13;;;6.63;;
1721;SDS011;858;53.190;8.596;2022-08-04T06:44:18;13.45;;;7.03;;
1721;SDS011;858;53.190;8.596;2022-08-04T06:46:46;13.80;;;7.40;;
1721;SDS011;858;53.190;8.596;2022-08-04T06:49:13;12.57;;;7.47;;
1721;SDS011;858;53.190;8.596;2022-08-04T06:51:39;14.88;;;7.88;;
1721;SDS011;858;53.190;8.596;2022-08-04T06:54:06;16.83;;;7.78;;
1721;SDS011;858;53.190;8.596;2022-08-04T06:56:33;18.45;;;8.55;;
1721;SDS011;858;53.190;8.596;2022-08-04T06:59:00;16.90;;;7.60;;
1721;SDS011;858;53.190;8.596;2022-08-04T07:01:27;17.58;;;8.68;;
1721;SDS011;858;53.190;8.596;2022-08-04T07:03:55;18.38;;;8.75;;
1721;SDS011;858;53.190;8.596;2022-08-04T07:06:22;23.90;;;9.52;;
1721;SDS011;858;53.190;8.596;2022-08-04T07:08:49;24.52;;;9.80;;
1721;SDS011;858;53.190;8.596;2022-08-04T07:11:17;23.00;;;9.43;;
1721;SDS011;858;53.190;8.596;2022-08-04T07:13:44;18.85;;;8.93;;
1721;SDS011;858;53.190;8.596;2022-08-04T07:16:12;19.60;;;9.17;;
1721;SDS011;858;53.190;8.596;2022-08-04T07:18:39;24.45;;;9.20;;
1721;SDS011;858;53.190;8.596;2022-08-04T07:21:09;21.13;;;8.73;;
1721;SDS011;858;53.190;8.596;2022-08-04T07:23:36;19.95;;;9.13;;
1721;SDS011;858;53.190;8.596;2022-08-04T07:26:03;17.65;;;9.02;;
1721;SDS011;858;53.190;8.596;2022-08-04T07:28:29;19.45;;;8.50;;
1721;SDS011;858;53.190;8.596;2022-08-04T07:30:56;17.45;;;8.77;;
1721;SDS011;858;53.190;8.596;2022-08-04T07:33:23;16.13;;;8.60;;
1721;SDS011;858;53.190;8.596;2022-08-04T07:35:53;17.90;;;8.80;;
1721;SDS011;858;53.190;8.596;2022-08-04T07:38:22;19.67;;;8.38;;
1721;SDS011;858;53.190;8.596;2022-08-04T07:40:48;13.82;;;8.23;;
1721;SDS011;858;53.190;8.596;2022-08-04T07:43:17;28.85;;;10.82;;
1721;SDS011;858;53.190;8.596;2022-08-04T07:45:46;16.30;;;7.67;;
1721;SDS011;858;53.190;8.596;2022-08-04T07:48:12;17.52;;;7.22;;
1721;SDS011;858;53.190;8.596;2022-08-04T07:50:40;14.23;;;6.95;;
1721;SDS011;858;53.190;8.596;2022-08-04T07:53:07;23.63;;;7.95;;
1721;SDS011;858;53.190;8.596;2022-08-04T07:55:36;19.35;;;7.05;;
1721;SDS011;858;53.190;8.596;2022-08-04T07:58:03;16.05;;;7.00;;
1721;SDS011;858;53.190;8.596;2022-08-04T08:00:29;17.10;;;7.37;;
1721;SDS011;858;53.190;8.596;2022-08-04T08:02:56;21.37;;;7.30;;
1721;SDS011;858;53.190;8.596;2022-08-04T08:05:22;16.73;;;7.30;;
1721;SDS011;858;53.190;8.596;2022-08-04T08:07:49;19.35;;;8.10;;
1721;SDS011;858;53.190;8.596;2022-08-04T08:10:16;17.80;;;7.27;;
1721;SDS011;858;53.190;8.596;2022-08-04T08:12:44;14.77;;;6.60;;
1721;SDS011;858;53.190;8.596;2022-08-04T08:15:10;18.73;;;6.43;;
1721;SDS011;858;53.190;8.596;2022-08-04T08:17:37;15.63;;;5.90;;
1721;SDS011;858;53.190;8.596;2022-08-04T08:20:05;22.90;;;6.90;;
1721;SDS011;858;53.190;8.596;2022-08-04T08:22:32;18.75;;;6.10;;
1721;SDS011;858;53.190;8.596;2022-08-04T08:24:59;11.73;;;5.90;;
1721;SDS011;858;53.190;8.596;2022-08-04T08:27:25;13.48;;;5.85;;
1721;SDS011;858;53.190;8.596;2022-08-04T08:29:53;17.10;;;6.50;;
1721;SDS011;858;53.190;8.596;2022-08-04T08:32:19;15.35;;;6.20;;
1721;SDS011;858;53.190;8.596;2022-08-04T08:34:46;13.98;;;5.63;;
1721;SDS011;858;53.190;8.596;2022-08-04T08:37:14;19.10;;;5.90;;
1721;SDS011;858;53.190;8.596;2022-08-04T08:39:41;14.35;;;5.68;;
1721;SDS011;858;53.190;8.596;2022-08-04T08:42:19;15.10;;;5.60;;
1721;SDS011;858;53.190;8.596;2022-08-04T08:45:04;12.88;;;5.50;;
1721;SDS011;858;53.190;8.596;2022-08-04T08:47:42;12.70;;;4.70;;
1721;SDS011;858;53.190;8.596;2022-08-04T08:50:17;9.18;;;4.55;;
1721;SDS011;858;53.190;8.596;2022-08-04T08:52:57;12.05;;;5.97;;
1721;SDS011;858;53.190;8.596;2022-08-04T08:55:30;10.70;;;5.40;;
1721;SDS011;858;53.190;8.596;2022-08-04T08:58:02;13.90;;;7.20;;
1721;SDS011;858;53.190;8.596;2022-08-04T09:00:39;14.38;;;6.75;;
1721;SDS011;858;53.190;8.596;2022-08-04T09:06:08;20.75;;;9.45;;
1721;SDS011;858;53.190;8.596;2022-08-04T09:08:54;15.82;;;8.20;;
1721;SDS011;858;53.190;8.596;2022-08-04T09:11:26;17.35;;;8.40;;
1721;SDS011;858;53.190;8.596;2022-08-04T09:13:53;17.97;;;8.43;;
1721;SDS011;858;53.190;8.596;2022-08-04T09:16:23;14.35;;;7.22;;
1721;SDS011;858;53.190;8.596;2022-08-04T09:18:51;13.15;;;5.63;;
1721;SDS011;858;53.190;8.596;2022-08-04T09:21:22;10.70;;;4.88;;
1721;SDS011;858;53.190;8.596;2022-08-04T09:23:50;7.53;;;4.60;;
1721;SDS011;858;53.190;8.596;2022-08-04T09:26:24;6.88;;;4.30;;
1721;SDS011;858;53.190;8.596;2022-08-04T09:28:53;7.40;;;4.60;;
1721;SDS011;858;53.190;8.596;2022-08-04T09:31:32;5.35;;;4.00;;
1721;SDS011;858;53.190;8.596;2022-08-04T09:34:03;8.07;;;4.10;;
1721;SDS011;858;53.190;8.596;2022-08-04T09:36:31;4.90;;;4.00;;
1721;SDS011;858;53.190;8.596;2022-08-04T09:39:05;6.03;;;3.80;;
1721;SDS011;858;53.190;8.596;2022-08-04T09:41:35;5.87;;;4.00;;
1721;SDS011;858;53.190;8.596;2022-08-04T09:44:07;6.35;;;4.00;;
1721;SDS011;858;53.190;8.596;2022-08-04T09:46:41;9.27;;;4.43;;
1721;SDS011;858;53.190;8.596;2022-08-04T09:49:09;5.40;;;4.20;;
1721;SDS011;858;53.190;8.596;2022-08-04T09:51:47;12.73;;;5.40;;
1721;SDS011;858;53.190;8.596;2022-08-04T09:54:15;7.55;;;3.90;;
1721;SDS011;858;53.190;8.596;2022-08-04T09:56:47;5.72;;;4.20;;
1721;SDS011;858;53.190;8.596;2022-08-04T09:59:17;6.70;;;3.90;;
1721;SDS011;858;53.190;8.596;2022-08-04T10:01:49;6.70;;;4.40;;
1721;SDS011;858;53.190;8.596;2022-08-04T10:04:18;6.95;;;4.35;;
1721;SDS011;858;53.190;8.596;2022-08-04T10:06:48;8.18;;;4.20;;
1721;SDS011;858;53.190;8.596;2022-08-04T10:09:32;7.43;;;4.50;;
1721;SDS011;858;53.190;8.596;2022-08-04T10:12:11;6.18;;;4.47;;
1721;SDS011;858;53.190;8.596;2022-08-04T10:14:47;8.30;;;4.15;;
1721;SDS011;858;53.190;8.596;2022-08-04T10:17:29;5.68;;;4.50;;
1721;SDS011;858;53.190;8.596;2022-08-04T10:19:59;7.65;;;4.32;;
1721;SDS011;858;53.190;8.596;2022-08-04T10:22:30;5.50;;;4.20;;
1721;SDS011;858;53.190;8.596;2022-08-04T10:25:00;7.95;;;4.20;;
1721;SDS011;858;53.190;8.596;2022-08-04T10:27:29;4.93;;;4.20;;
1721;SDS011;858;53.190;8.596;2022-08-04T10:30:01;5.47;;;3.80;;
1721;SDS011;858;53.190;8.596;2022-08-04T10:32:43;6.43;;;4.20;;
1721;SDS011;858;53.190;8.596;2022-08-04T10:35:11;3.90;;;3.60;;
1721;SDS011;858;53.190;8.596;2022-08-04T10:37:47;5.30;;;4.00;;
1721;SDS011;858;53.190;8.596;2022-08-04T10:40:16;6.28;;;4.00;;
1721;SDS011;858;53.190;8.596;2022-08-04T10:43:06;8.38;;;4.28;;
1721;SDS011;858;53.190;8.596;2022-08-04T10:45:35;4.83;;;4.00;;
1721;SDS011;858;53.190;8.596;2022-08-04T10:50:58;5.13;;;3.90;;
1721;SDS011;858;53.190;8.596;2022-08-04T10:53:26;7.07;;;4.10;;
1721;SDS011;858;53.190;8.596;2022-08-04T10:55:56;4.50;;;3.70;;
1721;SDS011;858;53.190;8.596;2022-08-04T10:58:25;4.93;;;4.00;;
1721;SDS011;858;53.190;8.596;2022-08-04T11:00:54;6.00;;;3.90;;
1721;SDS011;858;53.190;8.596;2022-08-04T11:03:22;5.05;;;4.22;;
1721;SDS011;858;53.190;8.596;2022-08-04T11:05:51;5.65;;;3.90;;
1721;SDS011;858;53.190;8.596;2022-08-04T11:08:20;6.15;;;3.80;;
1721;SDS011;858;53.190;8.596;2022-08-04T11:10:50;6.15;;;3.80;;
1721;SDS011;858;53.190;8.596;2022-08-04T11:13:17;3.78;;;3.47;;
1721;SDS011;858;53.190;8.596;2022-08-04T11:15:45;3.67;;;3.33;;
1721;SDS011;858;53.190;8.596;2022-08-04T11:18:13;10.07;;;4.27;;
1721;SDS011;858;53.190;8.596;2022-08-04T11:20:41;4.40;;;3.55;;
1721;SDS011;858;53.190;8.596;2022-08-04T11:23:12;5.22;;;3.75;;
1721;SDS011;858;53.190;8.596;2022-08-04T11:25:43;4.70;;;3.60;;
1721;SDS011;858;53.190;8.596;2022-08-04T11:28:13;5.63;;;3.47;;
1721;SDS011;858;53.190;8.596;2022-08-04T11:30:45;4.00;;;3.60;;
1721;SDS011;858;53.190;8.596;2022-08-04T11:33:20;4.00;;;3.55;;
1721;SDS011;858;53.190;8.596;2022-08-04T11:35:49;3.80;;;3.40;;
1721;SDS011;858;53.190;8.596;2022-08-04T11:38:21;3.83;;;3.50;;
1721;SDS011;858;53.190;8.596;2022-08-04T11:40:50;3.63;;;3.23;;
1721;SDS011;858;53.190;8.596;2022-08-04T11:43:21;3.63;;;2.97;;
1721;SDS011;858;53.190;8.596;2022-08-04T11:45:50;4.70;;;3.30;;
1721;SDS011;858;53.190;8.596;2022-08-04T11:48:18;3.92;;;3.63;;
1721;SDS011;858;53.190;8.596;2022-08-04T11:50:49;5.43;;;3.80;;
1721;SDS011;858;53.190;8.596;2022-08-04T11:53:17;4.32;;;3.35;;
1721;SDS011;858;53.190;8.596;2022-08-04T11:55:47;5.60;;;3.50;;
1721;SDS011;858;53.190;8.596;2022-08-04T11:58:14;4.47;;;3.60;;
1721;SDS011;858;53.190;8.596;2022-08-04T12:00:41;4.10;;;3.70;;
1721;SDS011;858;53.190;8.596;2022-08-04T12:03:13;4.22;;;3.70;;
1721;SDS011;858;53.190;8.596;2022-08-04T12:05:43;5.00;;;3.67;;
1721;SDS011;858;53.190;8.596;2022-08-04T12:08:16;3.92;;;3.53;;
1721;SDS011;858;53.190;8.596;2022-08-04T12:10:50;5.00;;;3.40;;
1721;SDS011;858;53.190;8.596;2022-08-04T12:13:26;5.50;;;3.80;;
1721;SDS011;858;53.190;8.596;2022-08-04T12:15:56;4.30;;;3.50;;
1721;SDS011;858;53.190;8.596;2022-08-04T12:18:26;4.63;;;3.90;;
1721;SDS011;858;53.190;8.596;2022-08-04T12:20:56;3.85;;;3.35;;
1721;SDS011;858;53.190;8.596;2022-08-04T12:23:23;3.90;;;3.50;;
1721;SDS011;858;53.190;8.596;2022-08-04T12:25:53;5.87;;;3.70;;
1721;SDS011;858;53.190;8.596;2022-08-04T12:28:25;6.00;;;3.73;;
1721;SDS011;858;53.190;8.596;2022-08-04T12:30:54;5.05;;;3.63;;
1721;SDS011;858;53.190;8.596;2022-08-04T12:33:25;4.22;;;3.83;;
1721;SDS011;858;53.190;8.596;2022-08-04T12:35:54;4.15;;;3.70;;
1721;SDS011;858;53.190;8.596;2022-08-04T12:38:26;5.10;;;3.70;;
1721;SDS011;858;53.190;8.596;2022-08-04T12:40:57;7.43;;;4.13;;
1721;SDS011;858;53.190;8.596;2022-08-04T12:43:28;6.43;;;3.73;;
1721;SDS011;858;53.190;8.596;2022-08-04T12:45:56;7.00;;;4.10;;
1721;SDS011;858;53.190;8.596;2022-08-04T12:48:23;6.05;;;3.80;;
1721;SDS011;858;53.190;8.596;2022-08-04T12:50:54;5.47;;;3.67;;
1721;SDS011;858;53.190;8.596;2022-08-04T12:53:22;5.00;;;3.67;;
1721;SDS011;858;53.190;8.596;2022-08-04T12:55:51;4.00;;;3.47;;
1721;SDS011;858;53.190;8.596;2022-08-04T12:58:22;4.57;;;3.80;;
1721;SDS011;858;53.190;8.596;2022-08-04T13:00:50;5.18;;;3.90;;
1721;SDS011;858;53.190;8.596;2022-08-04T13:03:18;5.70;;;4.30;;
1721;SDS011;858;53.190;8.596;2022-08-04T13:05:45;5.70;;;4.43;;
1721;SDS011;858;53.190;8.596;2022-08-04T13:08:13;8.45;;;5.20;;
1721;SDS011;858;53.190;8.596;2022-08-04T13:10:41;9.45;;;4.85;;
1721;SDS011;858;53.190;8.596;2022-08-04T13:13:13;10.15;;;5.50;;
1721;SDS011;858;53.190;8.596;2022-08-04T13:15:43;10.50;;;5.40;;
1721;SDS011;858;53.190;8.596;2022-08-04T13:18:19;10.73;;;4.95;;
1721;SDS011;858;53.190;8.596;2022-08-04T13:20:46;11.90;;;6.40;;
1721;SDS011;858;53.190;8.596;2022-08-04T13:23:14;10.40;;;5.53;;
1721;SDS011;858;53.190;8.596;2022-08-04T13:25:42;7.90;;;6.28;;
1721;SDS011;858;53.190;8.596;2022-08-04T13:28:11;9.83;;;5.50;;
1721;SDS011;858;53.190;8.596;2022-08-04T13:30:39;8.90;;;6.22;;
1721;SDS011;858;53.190;8.596;2022-08-04T13:33:07;10.68;;;5.90;;
1721;SDS011;858;53.190;8.596;2022-08-04T13:35:33;8.07;;;5.95;;
1721;SDS011;858;53.190;8.596;2022-08-04T13:38:02;9.35;;;6.13;;
1721;SDS011;858;53.190;8.596;2022-08-04T13:40:29;9.88;;;6.10;;
1721;SDS011;858;53.190;8.596;2022-08-04T13:42:56;8.75;;;5.60;;
1721;SDS011;858;53.190;8.596;2022-08-04T13:45:23;10.77;;;5.90;;
1721;SDS011;858;53.190;8.596;2022-08-04T13:47:50;10.55;;;6.10;;
1721;SDS011;858;53.190;8.596;2022-08-04T13:50:24;10.57;;;5.90;;
1721;SDS011;858;53.190;8.596;2022-08-04T13:52:52;8.38;;;6.10;;
1721;SDS011;858;53.190;8.596;2022-08-04T13:55:20;9.10;;;6.15;;
1721;SDS011;858;53.190;8.596;2022-08-04T13:57:49;8.93;;;5.65;;
1721;SDS011;858;53.190;8.596;2022-08-04T14:00:16;7.28;;;5.45;;
1721;SDS011;858;53.190;8.596;2022-08-04T14:02:44;10.52;;;6.43;;
1721;SDS011;858;53.190;8.596;2022-08-04T14:05:13;8.50;;;6.07;;
1721;SDS011;858;53.190;8.596;2022-08-04T14:07:44;9.88;;;5.70;;
1721;SDS011;858;53.190;8.596;2022-08-04T14:10:13;10.63;;;5.60;;
1721;SDS011;858;53.190;8.596;2022-08-04T14:12:44;12.38;;;6.00;;
1721;SDS011;858;53.190;8.596;2022-08-04T14:17:52;6.40;;;5.05;;
1721;SDS011;858;53.190;8.596;2022-08-04T14:20:19;9.73;;;5.82;;
1721;SDS011;858;53.190;8.596;2022-08-04T14:22:47;9.73;;;5.47;;
1721;SDS011;858;53.190;8.596;2022-08-04T14:25:14;10.68;;;5.47;;
1721;SDS011;858;53.190;8.596;2022-08-04T14:27:43;14.57;;;6.07;;
1721;SDS011;858;53.190;8.596;2022-08-04T14:30:19;14.20;;;6.85;;
1721;SDS011;858;53.190;8.596;2022-08-04T14:32:57;13.02;;;7.22;;
1721;SDS011;858;53.190;8.596;2022-08-04T14:35:24;13.38;;;7.90;;
1721;SDS011;858;53.190;8.596;2022-08-04T14:37:56;11.00;;;6.68;;
1721;SDS011;858;53.190;8.596;2022-08-04T14:40:23;11.07;;;6.55;;
1721;SDS011;858;53.190;8.596;2022-08-04T14:42:50;10.43;;;7.40;;
1721;SDS011;858;53.190;8.596;2022-08-04T14:45:16;10.60;;;7.50;;
1721;SDS011;858;53.190;8.596;2022-08-04T14:47:45;9.32;;;7.47;;
1721;SDS011;858;53.190;8.596;2022-08-04T14:50:12;13.95;;;8.02;;
1721;SDS011;858;53.190;8.596;2022-08-04T14:52:39;11.70;;;8.03;;
1721;SDS011;858;53.190;8.596;2022-08-04T14:55:26;10.10;;;7.37;;
1721;SDS011;858;53.190;8.596;2022-08-04T14:57:52;10.20;;;8.60;;
1721;SDS011;858;53.190;8.596;2022-08-04T15:00:25;11.95;;;8.60;;
1721;SDS011;858;53.190;8.596;2022-08-04T15:02:56;10.23;;;9.23;;
1721;SDS011;858;53.190;8.596;2022-08-04T15:05:25;11.77;;;8.85;;
1721;SDS011;858;53.190;8.596;2022-08-04T15:07:53;14.00;;;9.20;;
1721;SDS011;858;53.190;8.596;2022-08-04T15:10:21;11.85;;;9.23;;
1721;SDS011;858;53.190;8.596;2022-08-04T15:12:48;14.00;;;9.17;;
1721;SDS011;858;53.190;8.596;2022-08-04T15:15:14;10.82;;;8.40;;
1721;SDS011;858;53.190;8.596;2022-08-04T15:17:41;10.07;;;8.10;;
1721;SDS011;858;53.190;8.596;2022-08-04T15:20:09;11.63;;;8.88;;
1721;SDS011;858;53.190;8.596;2022-08-04T15:22:36;11.07;;;8.60;;
1721;SDS011;858;53.190;8.596;2022-08-04T15:25:02;12.63;;;8.00;;
1721;SDS011;858;53.190;8.596;2022-08-04T15:27:31;11.80;;;7.43;;
1721;SDS011;858;53.190;8.596;2022-08-04T15:29:59;12.32;;;7.72;;
1721;SDS011;858;53.190;8.596;2022-08-04T15:32:27;13.35;;;7.13;;
1721;SDS011;858;53.190;8.596;2022-08-04T15:34:59;9.45;;;6.57;;
1721;SDS011;858;53.190;8.596;2022-08-04T15:37:27;8.15;;;5.53;;
1721;SDS011;858;53.190;8.596;2022-08-04T15:39:54;9.07;;;5.40;;
1721;SDS011;858;53.190;8.596;2022-08-04T15:42:31;9.98;;;5.78;;
1721;SDS011;858;53.190;8.596;2022-08-04T15:45:10;12.20;;;5.63;;
1721;SDS011;858;53.190;8.596;2022-08-04T15:47:38;8.38;;;5.03;;
1721;SDS011;858;53.190;8.596;2022-08-04T15:50:06;10.88;;;5.25;;
1721;SDS011;858;53.190;8.596;2022-08-04T15:55:28;7.07;;;4.63;;
1721;SDS011;858;53.190;8.596;2022-08-04T15:57:56;5.28;;;3.95;;
1721;SDS011;858;53.190;8.596;2022-08-04T16:00:24;5.95;;;4.10;;
1721;SDS011;858;53.190;8.596;2022-08-04T16:02:50;6.75;;;4.20;;
1721;SDS011;858;53.190;8.596;2022-08-04T16:05:30;5.68;;;3.95;;
1721;SDS011;858;53.190;8.596;2022-08-04T16:08:00;6.97;;;4.20;;
1721;SDS011;858;53.190;8.596;2022-08-04T16:10:37;4.93;;;3.80;;
1721;SDS011;858;53.190;8.596;2022-08-04T16:13:04;4.63;;;4.00;;
1721;SDS011;858;53.190;8.596;2022-08-04T16:15:39;4.55;;;3.65;;
1721;SDS011;858;53.190;8.596;2022-08-04T16:18:06;6.00;;;3.58;;
1721;SDS011;858;53.190;8.596;2022-08-04T16:20:33;4.60;;;3.00;;
1721;SDS011;858;53.190;8.596;2022-08-04T16:23:02;5.15;;;3.60;;
1721;SDS011;858;53.190;8.596;2022-08-04T16:25:41;5.63;;;3.30;;
1721;SDS011;858;53.190;8.596;2022-08-04T16:28:13;4.38;;;3.75;;